Latest Coastal Weather Observations for Rowley Shoals

IDW60701

Issued at 3:03 am WST Tuesday 27 June 2017 (issued every 10 minutes, with the page automatically refreshed every 10 minutes)

About coastal observations | Map of coastal stations | Coastal observations for WA | Marine services | Other Formats
Station Details ID: 200713 Name: ROWLEY SHOALS Lat: -17.52 Lon: 118.95 Height: 0.0 m
Data from the previous 72 hours. | See also: Recent months at Rowley Shoals
Date/Time
WST
Temp
°C
Wind Pressure Rain since
9am
mm
Weather Cloud Vis
km
Sea
Height
m
Swell
Dir  Spd
kts
Gust
kts
hPa Trend Height
m
Period
s
Dir
27/03:00am - SSE 14 17 1014.3 - - - - - - - - -
27/02:30am - SSE 12 17 1014.4 - - - - - - - - -
27/02:00am - SSE 10 16 1014.6 - - - - - - - - -
27/01:30am - S 10 12 1014.8 - - - - - - - - -
27/01:00am - S 10 15 1015.0 - - - - - - - - -
27/12:30am - S 9 13 1015.1 - - - - - - - - -
27/12:00am - S 8 12 1015.0 - - - - - - - - -
 
Date/Time
WST
Temp
°C
Wind Pressure Rain since
9am
mm
Weather Cloud Vis
km
Sea
Height
m
Swell
Dir  Spd
kts
Gust
kts
hPa Trend Height
m
Period
s
Dir
26/11:30pm - SSE 7 9 1015.4 - - - - - - - - -
26/11:00pm - SSE 6 8 1015.5 - - - - - - - - -
26/10:30pm - S 7 9 1015.4 - - - - - - - - -
26/10:00pm - S 7 9 1015.6 - - - - - - - - -
26/09:30pm - S 6 8 1015.8 - - - - - - - - -
26/09:00pm - SSE 7 9 1015.6 - - - - - - - - -
26/08:30pm - SSE 8 11 1015.4 - - - - - - - - -
26/08:00pm - SSE 9 13 1015.2 - - - - - - - - -
26/07:30pm - SE 10 12 1015.1 - - - - - - - - -
26/07:00pm - SE 11 13 1014.8 - - - - - - - - -
26/06:30pm - SE 11 13 1014.5 - - - - - - - - -
26/06:00pm - SE 9 11 1014.2 - - - - - - - - -
26/05:30pm - SE 8 11 1013.8 - - - - - - - - -
26/05:00pm - SE 5 7 1013.7 - - - - - - - - -
26/04:30pm - SSE 5 7 1013.4 - - - - - - - - -
26/04:00pm - SSE 5 7 1013.3 - - - - - - - - -
26/03:30pm - S 5 8 1013.1 - - - - - - - - -
26/03:00pm - S 6 8 1013.1 - - - - - - - - -
26/02:30pm - SSW 5 7 1013.1 - - - - - - - - -
26/02:00pm - SSW 5 6 1013.2 - - - - - - - - -
26/01:30pm - SSW 5 7 1013.3 - - - - - - - - -
26/01:00pm - SSW 6 9 1013.4 - - - - - - - - -
26/12:30pm - S 7 10 1013.8 - - - - - - - - -
26/12:00pm - SSW 8 9 1014.1 - - - - - - - - -
26/11:30am - SSW 8 10 1014.4 - - - - - - - - -
26/11:00am - S 7 9 1014.6 - - - - - - - - -
26/10:30am - SSW 9 11 1015.0 - - - - - - - - -
26/10:00am - SSW 10 13 1015.0 - - - - - - - - -
26/09:30am - SSW 11 14 1015.1 - - - - - - - - -
26/09:00am - SSW 11 12 1015.1 - - - - - - - - -
26/08:30am - SW 11 14 1014.9 - - - - - - - - -
26/08:00am - SW 11 13 1014.6 - - - - - - - - -
26/07:30am - SW 12 14 1014.2 - - - - - - - - -
26/07:00am - SW 12 15 1014.0 - - - - - - - - -
26/06:30am - SW 13 15 1013.4 - - - - - - - - -
26/06:00am - SW 13 15 1013.4 - - - - - - - - -
26/05:30am - SW 13 15 1012.9 - - - - - - - - -
26/05:00am - SW 11 14 1012.7 - - - - - - - - -
26/04:30am - SW 11 14 1012.6 - - - - - - - - -
26/04:00am - WSW 10 13 1012.7 - - - - - - - - -
26/03:30am - WSW 10 13 1012.7 - - - - - - - - -
26/03:00am - WSW 9 11 1012.8 - - - - - - - - -
26/02:30am - WSW 8 11 1012.7 - - - - - - - - -
26/02:00am - SW 8 11 1012.8 - - - - - - - - -
26/01:30am - WSW 7 10 1013.1 - - - - - - - - -
26/01:00am - WSW 7 9 1013.4 - - - - - - - - -
26/12:30am - WSW 6 9 1013.6 - - - - - - - - -
26/12:00am - WSW 6 8 1013.7 - - - - - - - - -
 
Date/Time
WST
Temp
°C
Wind Pressure Rain since
9am
mm
Weather Cloud Vis
km
Sea
Height
m
Swell
Dir  Spd
kts
Gust
kts
hPa Trend Height
m
Period
s
Dir
25/11:30pm - WSW 6 9 1014.1 - - - - - - - - -
25/11:00pm - SW 7 8 1014.1 - - - - - - - - -
25/10:30pm - SW 6 8 1014.2 - - - - - - - - -
25/10:00pm - SW 6 8 1014.2 - - - - - - - - -
25/09:30pm - SSW 8 9 1014.1 - - - - - - - - -
25/09:00pm - SW 8 10 1014.2 - - - - - - - - -
25/08:30pm - SSW 9 11 1013.8 - - - - - - - - -
25/08:00pm - SW 10 13 1013.6 - - - - - - - - -
25/07:30pm - SSW 10 13 1013.3 - - - - - - - - -
25/07:00pm - SSW 11 14 1012.9 - - - - - - - - -
25/06:30pm - SSW 11 13 1012.5 - - - - - - - - -
25/06:00pm - SSW 10 12 1012.4 - - - - - - - - -
25/05:30pm - SSW 10 12 1012.3 - - - - - - - - -
25/05:00pm - SSW 9 11 1012.1 - - - - - - - - -
25/04:30pm - SSW 10 13 1011.9 - - - - - - - - -
25/04:00pm - SSW 9 11 1011.8 - - - - - - - - -
25/03:30pm - SSW 10 12 1011.7 - - - - - - - - -
25/03:00pm - SW 9 11 1011.5 - - - - - - - - -
25/02:30pm - SSW 9 11 1011.6 - - - - - - - - -
25/02:00pm - SW 7 10 1011.6 - - - - - - - - -
25/01:30pm - SW 7 9 1012.0 - - - - - - - - -
25/01:00pm - SSW 6 8 1012.2 - - - - - - - - -
25/12:30pm - SSW 7 9 1012.8 - - - - - - - - -
25/12:00pm - SSW 8 10 1013.0 - - - - - - - - -
25/11:30am - SSW 8 11 1013.6 - - - - - - - - -
25/11:00am - SSW 9 10 1013.9 - - - - - - - - -
25/10:30am - SSW 9 11 1014.4 - - - - - - - - -
25/10:00am - SSW 9 11 1014.4 - - - - - - - - -
25/09:30am - SSW 10 11 1014.5 - - - - - - - - -
25/09:00am - SSW 10 13 1014.5 - - - - - - - - -
25/08:30am - SSW 9 11 1014.3 - - - - - - - - -
25/08:00am - SW 10 12 1014.0 - - - - - - - - -
25/07:30am - SSW 9 11 1013.3 - - - - - - - - -
25/07:00am - SW 10 12 1013.1 - - - - - - - - -
25/06:30am - SW 9 11 1012.7 - - - - - - - - -
25/06:00am - SW 9 11 1012.5 - - - - - - - - -
25/05:30am - SW 10 13 1012.3 - - - - - - - - -
25/05:00am - SW 8 11 1012.2 - - - - - - - - -
25/04:30am - SW 9 11 1012.3 - - - - - - - - -
25/04:00am - SW 7 9 1012.4 - - - - - - - - -
25/03:30am - SW 8 10 1012.3 - - - - - - - - -
25/03:00am - WSW 6 8 1012.5 - - - - - - - - -
25/02:30am - SW 6 7 1012.8 - - - - - - - - -
25/02:00am - SW 7 9 1013.0 - - - - - - - - -
25/01:30am - SW 9 11 1013.4 - - - - - - - - -
25/01:00am - SSW 10 11 1013.6 - - - - - - - - -
25/12:30am - SW 9 11 1013.6 - - - - - - - - -
25/12:00am - SW 9 11 1013.6 - - - - - - - - -
 
Date/Time
WST
Temp
°C
Wind Pressure Rain since
9am
mm
Weather Cloud Vis
km
Sea
Height
m
Swell
Dir  Spd
kts
Gust
kts
hPa Trend Height
m
Period
s
Dir
24/11:30pm - SW 11 12 1013.7 - - - - - - - - -
24/11:00pm - SSW 10 11 1013.8 - - - - - - - - -
24/10:30pm - SSW 10 11 1013.8 - - - - - - - - -
24/10:00pm - SSW 10 12 1013.9 - - - - - - - - -
24/09:30pm - SSW 9 11 1013.8 - - - - - - - - -
24/09:00pm - SSW 7 9 1013.8 - - - - - - - - -
24/08:30pm - SSW 7 9 1013.6 - - - - - - - - -
24/08:00pm - SSW 8 9 1013.3 - - - - - - - - -
24/07:30pm - SSW 8 11 1013.1 - - - - - - - - -
24/07:00pm - SSW 7 9 1012.8 - - - - - - - - -
24/06:30pm - SSW 6 8 1012.4 - - - - - - - - -
24/06:00pm - SSW 6 8 1012.4 - - - - - - - - -
24/05:30pm - SSW 5 7 1012.0 - - - - - - - - -
24/05:00pm - S 5 6 1011.7 - - - - - - - - -
24/04:30pm - SSW 7 9 1011.3 - - - - - - - - -
24/04:00pm - SSW 8 10 1011.1 - - - - - - - - -
24/03:30pm - SSW 8 9 1010.9 - - - - - - - - -
24/03:00pm - SSW 8 10 1010.9 - - - - - - - - -
24/02:30pm - SSW 8 10 1010.9 - - - - - - - - -
24/02:00pm - SSW 8 11 1011.0 - - - - - - - - -
24/01:30pm - SW 8 10 1011.3 - - - - - - - - -
24/01:00pm - SSW 8 9 1011.5 - - - - - - - - -
24/12:30pm - SSW 7 10 1011.9 - - - - - - - - -
24/12:00pm - SSW 7 9 1012.2 - - - - - - - - -
24/11:30am - SW 7 8 1012.8 - - - - - - - - -
24/11:00am - SSW 6 7 1013.1 - - - - - - - - -
24/10:30am - SSW 6 8 1013.5 - - - - - - - - -
24/10:00am - SSW 6 7 1013.7 - - - - - - - - -
24/09:30am - SW 7 8 1013.9 - - - - - - - - -
24/09:00am - SW 7 8 1013.9 - - - - - - - - -
24/08:30am - SW 6 8 1013.5 - - - - - - - - -
24/08:00am - SW 5 7 1013.4 - - - - - - - - -
24/07:30am - SW 7 9 1013.0 - - - - - - - - -
24/07:00am - SW 6 8 1012.7 - - - - - - - - -
24/06:30am - SW 6 7 1012.3 - - - - - - - - -
24/06:00am - SW 4 6 1012.0 - - - - - - - - -
24/05:30am - SW 4 5 1011.9 - - - - - - - - -
24/05:00am - CALM 0 0 1012.1 - - - - - - - - -
24/04:30am - WSW 3 4 1012.2 - - - - - - - - -
24/04:00am - W 4 5 1012.5 - - - - - - - - -
24/03:30am - SW 3 4 1012.6 - - - - - - - - -

Other Formats:

Comma delimited format used in spreadsheet applications
http://www.bom.gov.au/fwo/IDW60701/IDW60701.94207.axf

JavaScript Object Notation format (JSON) in row-major order
http://www.bom.gov.au/fwo/IDW60701/IDW60701.94207.json